PUUANAHULU HI US current weather conditions

sailwx.info

Wind from 353 at 1 knots gusting 6

Air temperature 20.6° C
Dewpoint 17.2° C

Last reported at 2015-Jul-04 05:37 UTC.
Time now 2015-Jul-04 07:04 UTC

Location: N 19°50' W 155°46'.
View on Google Maps.

See reports from other nearby stations

  
Tides and Currents Weather Stations Pressure Air Temp Water Temp Dewpoint Dewpoint Depression Visibility Wind Speed Wind Dir Waves Ship Positions
date/time (UTC)wind fromknots sea level pressurealtimeterstation pressurevisibilityair tempwater tempwave heightnotes
2015-Jul-04 05:37 353 1 gusting 6 20.6
2015-Jul-04 04:37 024 6 gusting 11 22.2
2015-Jul-04 03:37 002 6 gusting 14 23.3
2015-Jul-04 02:37 340 8 gusting 15 24.4
2015-Jul-04 01:37 359 4 gusting 11 26.1
2015-Jul-04 00:37 304 6 gusting 14 25.6
2015-Jul-03 23:37 314 5 gusting 13 26.1
2015-Jul-03 22:37 314 6 gusting 13 25.6
2015-Jul-03 21:37 344 6 gusting 13 27.2
2015-Jul-03 20:37 330 5 gusting 13 26.1
2015-Jul-03 19:37 332 7 gusting 14 26.1
2015-Jul-03 18:37 001 4 gusting 8 25.0
2015-Jul-03 17:37 133 1 gusting 7 23.3
2015-Jul-03 16:37 125 5 gusting 6 18.9
2015-Jul-03 15:37 133 4 gusting 6 18.9
2015-Jul-03 14:37 138 5 gusting 7 17.8
2015-Jul-03 13:37 112 3 gusting 5 18.3
2015-Jul-03 12:37 154 2 gusting 3 18.3
2015-Jul-03 11:37 234 0 gusting 6 19.4
2015-Jul-03 10:37 172 2 gusting 6 19.4
2015-Jul-03 09:37 142 4 gusting 6 20.6
2015-Jul-03 08:37 158 1 gusting 4 21.7
2015-Jul-03 07:37 132 3 gusting 5 21.1
2015-Jul-03 06:37 111 1 gusting 3 22.2
2015-Jul-03 05:37 260 1 gusting 6 23.3
2015-Jul-03 04:37 290 4 gusting 8 24.4
2015-Jul-03 03:37 287 5 gusting 10 24.4
2015-Jul-03 02:37 259 6 gusting 12 25.0
2015-Jul-03 01:37 271 5 gusting 13 25.0
2015-Jul-03 00:37 294 7 gusting 13 25.0
2015-Jul-02 23:37 315 7 gusting 13 26.1
2015-Jul-02 22:37 291 8 gusting 15 26.7
2015-Jul-02 21:37 316 6 gusting 12 25.6
2015-Jul-02 20:37 304 5 gusting 10 25.6
2015-Jul-02 19:37 317 3 gusting 6 22.8
2015-Jul-02 18:37 337 3 gusting 6 21.7
2015-Jul-02 17:37 034 4 gusting 6 21.1
2015-Jul-02 16:37 115 4 gusting 8 20.6
2015-Jul-02 15:37 063 1 gusting 3 20.6
2015-Jul-02 14:37 048 2 gusting 4 20.6
2015-Jul-02 13:37 20.6
2015-Jul-02 12:37 029 0 gusting 2 20.6
2015-Jul-02 11:37 20.0
2015-Jul-02 10:37 121 3 gusting 6 19.4
2015-Jul-02 09:37 087 1 gusting 4 20.6
2015-Jul-02 08:37 007 3 gusting 5 20.6
2015-Jul-02 07:37 351 4 gusting 5 21.7